sensor_id;sensor_type;location;lat;lon;timestamp;pressure;altitude;pressure_sealevel;temperature;humidity
42169;BME280;27838;43.858;25.974;2022-11-14T00:00:23;102351.34;;;11.93;66.70
42169;BME280;27838;43.858;25.974;2022-11-14T00:02:50;102342.66;;;11.92;66.74
42169;BME280;27838;43.858;25.974;2022-11-14T00:05:17;102342.63;;;11.90;66.82
42169;BME280;27838;43.858;25.974;2022-11-14T00:07:44;102357.41;;;11.92;67.28
42169;BME280;27838;43.858;25.974;2022-11-14T00:10:12;102347.75;;;11.87;67.72
42169;BME280;27838;43.858;25.974;2022-11-14T00:12:39;102354.00;;;11.94;67.42
42169;BME280;27838;43.858;25.974;2022-11-14T00:15:06;102352.22;;;11.93;66.95
42169;BME280;27838;43.858;25.974;2022-11-14T00:17:33;102358.28;;;11.90;66.92
42169;BME280;27838;43.858;25.974;2022-11-14T00:19:59;102361.63;;;11.85;66.74
42169;BME280;27838;43.858;25.974;2022-11-14T00:22:26;102353.53;;;11.74;66.97
42169;BME280;27838;43.858;25.974;2022-11-14T00:24:52;102362.97;;;11.66;67.17
42169;BME280;27838;43.858;25.974;2022-11-14T00:27:19;102350.56;;;11.56;67.45
42169;BME280;27838;43.858;25.974;2022-11-14T00:29:45;102356.72;;;11.59;67.89
42169;BME280;27838;43.858;25.974;2022-11-14T00:32:12;102355.84;;;11.59;68.20
42169;BME280;27838;43.858;25.974;2022-11-14T00:34:38;102359.44;;;11.65;67.74
42169;BME280;27838;43.858;25.974;2022-11-14T00:37:05;102354.22;;;11.64;68.17
42169;BME280;27838;43.858;25.974;2022-11-14T00:39:31;102349.94;;;11.67;68.59
42169;BME280;27838;43.858;25.974;2022-11-14T00:41:58;102341.25;;;11.68;68.44
42169;BME280;27838;43.858;25.974;2022-11-14T00:44:24;102350.94;;;11.74;68.07
42169;BME280;27838;43.858;25.974;2022-11-14T00:46:51;102351.09;;;11.82;68.20
42169;BME280;27838;43.858;25.974;2022-11-14T00:49:17;102347.66;;;11.84;67.64
42169;BME280;27838;43.858;25.974;2022-11-14T00:51:44;102343.38;;;11.88;67.43
42169;BME280;27838;43.858;25.974;2022-11-14T00:54:10;102344.28;;;11.88;67.58
42169;BME280;27838;43.858;25.974;2022-11-14T00:56:37;102339.06;;;11.88;67.55
42169;BME280;27838;43.858;25.974;2022-11-14T00:59:04;102342.69;;;11.94;67.65
42169;BME280;27838;43.858;25.974;2022-11-14T01:01:30;102341.78;;;11.93;67.21
42169;BME280;27838;43.858;25.974;2022-11-14T01:03:57;102340.94;;;11.94;67.22
42169;BME280;27838;43.858;25.974;2022-11-14T01:06:23;102340.88;;;11.91;66.87
42169;BME280;27838;43.858;25.974;2022-11-14T01:08:50;102335.53;;;11.86;67.61
42169;BME280;27838;43.858;25.974;2022-11-14T01:11:19;102326.75;;;11.84;67.63
42169;BME280;27838;43.858;25.974;2022-11-14T01:13:47;102325.09;;;11.86;67.84
42169;BME280;27838;43.858;25.974;2022-11-14T01:16:13;102321.72;;;11.90;67.53
42169;BME280;27838;43.858;25.974;2022-11-14T01:18:40;102326.94;;;11.90;67.16
42169;BME280;27838;43.858;25.974;2022-11-14T01:21:09;102324.31;;;11.90;67.22
42169;BME280;27838;43.858;25.974;2022-11-14T01:23:37;102327.97;;;11.99;67.40
42169;BME280;27838;43.858;25.974;2022-11-14T01:26:12;102321.00;;;11.99;67.31
42169;BME280;27838;43.858;25.974;2022-11-14T01:28:39;102332.41;;;12.03;67.12
42169;BME280;27838;43.858;25.974;2022-11-14T01:31:15;102317.66;;;12.06;67.15
42169;BME280;27838;43.858;25.974;2022-11-14T01:33:43;102315.91;;;12.07;67.22
42169;BME280;27838;43.858;25.974;2022-11-14T01:36:10;102315.97;;;12.10;67.18
42169;BME280;27838;43.858;25.974;2022-11-14T01:38:37;102317.66;;;12.06;66.80
42169;BME280;27838;43.858;25.974;2022-11-14T01:41:04;102317.66;;;12.06;66.67
42169;BME280;27838;43.858;25.974;2022-11-14T01:43:36;102314.94;;;12.02;66.93
42169;BME280;27838;43.858;25.974;2022-11-14T01:49:01;102308.72;;;11.94;67.00
42169;BME280;27838;43.858;25.974;2022-11-14T01:51:54;102315.72;;;11.96;66.50
42169;BME280;27838;43.858;25.974;2022-11-14T01:54:28;102312.13;;;11.91;66.98
42169;BME280;27838;43.858;25.974;2022-11-14T01:56:58;102306.03;;;11.90;67.84
42169;BME280;27838;43.858;25.974;2022-11-14T01:59:30;102307.78;;;11.92;68.10
42169;BME280;27838;43.858;25.974;2022-11-14T02:02:02;102309.44;;;11.89;67.59
42169;BME280;27838;43.858;25.974;2022-11-14T02:04:39;102306.94;;;11.93;67.48
42169;BME280;27838;43.858;25.974;2022-11-14T02:07:07;102298.28;;;11.97;67.31
42169;BME280;27838;43.858;25.974;2022-11-14T02:09:36;102300.97;;;12.00;67.28
42169;BME280;27838;43.858;25.974;2022-11-14T02:12:06;102305.38;;;12.01;67.83
42169;BME280;27838;43.858;25.974;2022-11-14T02:14:34;102300.16;;;12.02;67.53
42169;BME280;27838;43.858;25.974;2022-11-14T02:17:02;102294.06;;;12.03;67.41
42169;BME280;27838;43.858;25.974;2022-11-14T02:19:51;102296.75;;;12.06;66.96
42169;BME280;27838;43.858;25.974;2022-11-14T02:22:18;102299.41;;;12.08;67.29
42169;BME280;27838;43.858;25.974;2022-11-14T02:24:45;102295.97;;;12.12;66.84
42169;BME280;27838;43.858;25.974;2022-11-14T02:27:12;102300.44;;;12.16;66.39
42169;BME280;27838;43.858;25.974;2022-11-14T02:29:40;102302.16;;;12.16;66.57
42169;BME280;27838;43.858;25.974;2022-11-14T02:32:06;102299.47;;;12.11;67.24
42169;BME280;27838;43.858;25.974;2022-11-14T02:34:33;102295.00;;;12.07;67.50
42169;BME280;27838;43.858;25.974;2022-11-14T02:37:00;102294.06;;;12.03;67.69
42169;BME280;27838;43.858;25.974;2022-11-14T02:39:26;102290.59;;;12.03;67.06
42169;BME280;27838;43.858;25.974;2022-11-14T02:41:53;102299.34;;;12.05;67.30
42169;BME280;27838;43.858;25.974;2022-11-14T02:44:19;102294.94;;;12.02;67.63
42169;BME280;27838;43.858;25.974;2022-11-14T02:46:46;102298.53;;;12.07;67.78
42169;BME280;27838;43.858;25.974;2022-11-14T02:49:12;102288.88;;;12.05;67.48
42169;BME280;27838;43.858;25.974;2022-11-14T02:51:39;102293.31;;;12.07;67.40
42169;BME280;27838;43.858;25.974;2022-11-14T02:54:06;102294.97;;;12.05;68.20
42169;BME280;27838;43.858;25.974;2022-11-14T02:56:33;102292.41;;;12.07;67.72
42169;BME280;27838;43.858;25.974;2022-11-14T02:59:00;102297.63;;;12.07;68.15
42169;BME280;27838;43.858;25.974;2022-11-14T03:01:26;102297.63;;;12.07;67.89
42169;BME280;27838;43.858;25.974;2022-11-14T03:03:53;102290.66;;;12.06;68.36
42169;BME280;27838;43.858;25.974;2022-11-14T03:06:19;102295.91;;;12.09;68.86
42169;BME280;27838;43.858;25.974;2022-11-14T03:08:46;102288.94;;;12.08;68.58
42169;BME280;27838;43.858;25.974;2022-11-14T03:11:12;102296.88;;;12.13;68.38
42169;BME280;27838;43.858;25.974;2022-11-14T03:13:39;102301.22;;;12.12;68.08
42169;BME280;27838;43.858;25.974;2022-11-14T03:16:09;102292.44;;;12.08;68.17
42169;BME280;27838;43.858;25.974;2022-11-14T03:18:36;102301.03;;;12.03;68.25
42169;BME280;27838;43.858;25.974;2022-11-14T03:21:17;102295.81;;;12.03;68.06
42169;BME280;27838;43.858;25.974;2022-11-14T03:23:44;102294.91;;;12.01;68.48
42169;BME280;27838;43.858;25.974;2022-11-14T03:26:12;102313.22;;;12.01;68.43
42169;BME280;27838;43.858;25.974;2022-11-14T03:28:39;102303.59;;;12.00;68.38
42169;BME280;27838;43.858;25.974;2022-11-14T03:31:08;102295.75;;;12.00;68.91
42169;BME280;27838;43.858;25.974;2022-11-14T03:33:35;102306.28;;;12.03;68.31
42169;BME280;27838;43.858;25.974;2022-11-14T03:36:02;102300.09;;;11.99;68.76
42169;BME280;27838;43.858;25.974;2022-11-14T03:38:29;102304.41;;;11.96;68.39
42169;BME280;27838;43.858;25.974;2022-11-14T03:40:59;102306.09;;;11.94;68.72
42169;BME280;27838;43.858;25.974;2022-11-14T03:43:30;102304.31;;;11.93;68.90
42169;BME280;27838;43.858;25.974;2022-11-14T03:46:00;102303.41;;;11.90;68.75
42169;BME280;27838;43.858;25.974;2022-11-14T03:48:28;102306.97;;;11.94;69.05
42169;BME280;27838;43.858;25.974;2022-11-14T03:50:55;102303.63;;;12.01;68.34
42169;BME280;27838;43.858;25.974;2022-11-14T03:53:21;102295.03;;;12.08;68.28
42169;BME280;27838;43.858;25.974;2022-11-14T03:55:49;102295.91;;;12.09;68.42
42169;BME280;27838;43.858;25.974;2022-11-14T03:58:16;102290.66;;;12.06;68.01
42169;BME280;27838;43.858;25.974;2022-11-14T04:00:42;102301.09;;;12.06;67.95
42169;BME280;27838;43.858;25.974;2022-11-14T04:03:09;102296.66;;;12.02;68.24
42169;BME280;27838;43.858;25.974;2022-11-14T04:05:35;102295.88;;;12.06;68.20
42169;BME280;27838;43.858;25.974;2022-11-14T04:08:05;102290.69;;;12.09;68.24
42169;BME280;27838;43.858;25.974;2022-11-14T04:10:32;102288.09;;;12.11;67.76
42169;BME280;27838;43.858;25.974;2022-11-14T04:12:59;102293.38;;;12.12;68.00
42169;BME280;27838;43.858;25.974;2022-11-14T04:15:25;102291.59;;;12.09;68.18
42169;BME280;27838;43.858;25.974;2022-11-14T04:17:52;102295.97;;;12.12;67.95
42169;BME280;27838;43.858;25.974;2022-11-14T04:20:18;102290.69;;;12.09;68.04
42169;BME280;27838;43.858;25.974;2022-11-14T04:22:45;102300.28;;;12.08;68.07
42169;BME280;27838;43.858;25.974;2022-11-14T04:25:12;102306.34;;;12.06;68.45
42169;BME280;27838;43.858;25.974;2022-11-14T04:27:38;102303.59;;;12.00;68.93
42169;BME280;27838;43.858;25.974;2022-11-14T04:30:05;102293.91;;;11.94;68.93
42169;BME280;27838;43.858;25.974;2022-11-14T04:32:32;102307.78;;;11.92;68.94
42169;BME280;27838;43.858;25.974;2022-11-14T04:34:58;102307.78;;;11.92;69.31
42169;BME280;27838;43.858;25.974;2022-11-14T04:37:25;102300.81;;;11.90;69.19
42169;BME280;27838;43.858;25.974;2022-11-14T04:39:52;102315.69;;;11.95;69.01
42169;BME280;27838;43.858;25.974;2022-11-14T04:42:22;102303.41;;;11.90;69.14
42169;BME280;27838;43.858;25.974;2022-11-14T04:44:49;102302.59;;;11.93;68.33
42169;BME280;27838;43.858;25.974;2022-11-14T04:47:16;102317.53;;;12.00;68.58
42169;BME280;27838;43.858;25.974;2022-11-14T04:49:42;102320.06;;;11.96;68.75
42169;BME280;27838;43.858;25.974;2022-11-14T04:52:09;102312.94;;;11.88;68.38
42169;BME280;27838;43.858;25.974;2022-11-14T04:54:35;102321.63;;;11.89;68.81
42169;BME280;27838;43.858;25.974;2022-11-14T04:57:02;102323.31;;;11.85;68.50
42169;BME280;27838;43.858;25.974;2022-11-14T04:59:28;102321.50;;;11.81;68.78
42169;BME280;27838;43.858;25.974;2022-11-14T05:01:55;102323.16;;;11.79;68.71
42169;BME280;27838;43.858;25.974;2022-11-14T05:04:21;102333.69;;;11.82;68.66
42169;BME280;27838;43.858;25.974;2022-11-14T05:06:48;102329.34;;;11.83;68.99
42169;BME280;27838;43.858;25.974;2022-11-14T05:09:15;102325.03;;;11.83;68.90
42169;BME280;27838;43.858;25.974;2022-11-14T05:11:41;102332.00;;;11.84;68.58
42169;BME280;27838;43.858;25.974;2022-11-14T05:14:08;102328.47;;;11.82;68.67
42169;BME280;27838;43.858;25.974;2022-11-14T05:16:34;102327.63;;;11.83;68.21
42169;BME280;27838;43.858;25.974;2022-11-14T05:19:01;102330.31;;;11.88;68.20
42169;BME280;27838;43.858;25.974;2022-11-14T05:21:27;102326.84;;;11.87;68.12
42169;BME280;27838;43.858;25.974;2022-11-14T05:23:54;102337.38;;;11.90;68.16
42169;BME280;27838;43.858;25.974;2022-11-14T05:26:20;102338.16;;;11.86;68.19
42169;BME280;27838;43.858;25.974;2022-11-14T05:28:47;102335.53;;;11.86;68.41
42169;BME280;27838;43.858;25.974;2022-11-14T05:31:14;102332.88;;;11.85;67.93
42169;BME280;27838;43.858;25.974;2022-11-14T05:33:42;102343.47;;;11.91;67.63
42169;BME280;27838;43.858;25.974;2022-11-14T05:36:15;102346.03;;;11.89;67.61
42169;BME280;27838;43.858;25.974;2022-11-14T05:38:42;102345.22;;;11.90;67.83
42169;BME280;27838;43.858;25.974;2022-11-14T05:41:11;102346.13;;;11.93;67.67
42169;BME280;27838;43.858;25.974;2022-11-14T05:43:38;102353.16;;;11.95;67.34
42169;BME280;27838;43.858;25.974;2022-11-14T05:46:06;102357.41;;;11.92;66.90
42169;BME280;27838;43.858;25.974;2022-11-14T05:48:33;102352.97;;;11.87;67.26
42169;BME280;27838;43.858;25.974;2022-11-14T05:51:02;102363.34;;;11.84;67.16
42169;BME280;27838;43.858;25.974;2022-11-14T05:53:30;102368.50;;;11.80;66.77
42169;BME280;27838;43.858;25.974;2022-11-14T05:56:05;102375.41;;;11.78;66.89
42169;BME280;27838;43.858;25.974;2022-11-14T05:58:33;102368.44;;;11.78;67.02
42169;BME280;27838;43.858;25.974;2022-11-14T06:03:40;102378.81;;;11.75;66.88
42169;BME280;27838;43.858;25.974;2022-11-14T06:06:08;102378.81;;;11.75;66.86
42169;BME280;27838;43.858;25.974;2022-11-14T06:08:36;102375.22;;;11.70;66.61
42169;BME280;27838;43.858;25.974;2022-11-14T06:11:05;102384.88;;;11.73;66.78
42169;BME280;27838;43.858;25.974;2022-11-14T06:13:32;102381.31;;;11.69;66.96
42169;BME280;27838;43.858;25.974;2022-11-14T06:16:04;102376.94;;;11.68;66.70
42169;BME280;27838;43.858;25.974;2022-11-14T06:18:33;102373.50;;;11.69;66.38
42169;BME280;27838;43.858;25.974;2022-11-14T06:21:04;102379.47;;;11.65;66.40
42169;BME280;27838;43.858;25.974;2022-11-14T06:23:31;102380.38;;;11.67;66.37
42169;BME280;27838;43.858;25.974;2022-11-14T06:25:59;102372.59;;;11.68;66.33
42169;BME280;27838;43.858;25.974;2022-11-14T06:28:27;102378.75;;;11.72;66.44
42169;BME280;27838;43.858;25.974;2022-11-14T06:31:00;102381.34;;;11.70;66.39
42169;BME280;27838;43.858;25.974;2022-11-14T06:33:29;102376.00;;;11.64;66.86
42169;BME280;27838;43.858;25.974;2022-11-14T06:36:04;102387.13;;;11.56;66.44
42169;BME280;27838;43.858;25.974;2022-11-14T06:38:33;102386.91;;;11.46;67.22
42169;BME280;27838;43.858;25.974;2022-11-14T06:43:33;102393.88;;;11.47;67.28
42169;BME280;27838;43.858;25.974;2022-11-14T06:45:59;102392.06;;;11.43;67.54
42169;BME280;27838;43.858;25.974;2022-11-14T06:48:27;102394.66;;;11.43;67.82
42169;BME280;27838;43.858;25.974;2022-11-14T06:50:55;102398.13;;;11.42;67.66
42169;BME280;27838;43.858;25.974;2022-11-14T06:53:22;102391.16;;;11.41;67.53
42169;BME280;27838;43.858;25.974;2022-11-14T06:56:06;102391.97;;;11.40;67.77
42169;BME280;27838;43.858;25.974;2022-11-14T06:58:38;102381.41;;;11.34;67.89
42169;BME280;27838;43.858;25.974;2022-11-14T07:01:05;102392.81;;;11.39;67.47
42169;BME280;27838;43.858;25.974;2022-11-14T07:03:33;102385.06;;;11.42;67.28
42169;BME280;27838;43.858;25.974;2022-11-14T07:06:00;102381.41;;;11.36;67.37
42169;BME280;27838;43.858;25.974;2022-11-14T07:08:27;102380.63;;;11.38;67.19
42169;BME280;27838;43.858;25.974;2022-11-14T07:10:53;102378.94;;;11.40;67.33
42169;BME280;27838;43.858;25.974;2022-11-14T07:13:25;102371.88;;;11.36;67.61
42169;BME280;27838;43.858;25.974;2022-11-14T07:15:53;102377.94;;;11.35;67.32
42169;BME280;27838;43.858;25.974;2022-11-14T07:18:20;102372.75;;;11.37;67.65
42169;BME280;27838;43.858;25.974;2022-11-14T07:20:46;102371.00;;;11.37;67.71
42169;BME280;27838;43.858;25.974;2022-11-14T07:23:14;102369.31;;;11.38;68.20
42169;BME280;27838;43.858;25.974;2022-11-14T07:25:41;102372.84;;;11.40;67.40
42169;BME280;27838;43.858;25.974;2022-11-14T07:28:07;102364.97;;;11.38;67.81
42169;BME280;27838;43.858;25.974;2022-11-14T07:30:34;102368.38;;;11.36;68.00
42169;BME280;27838;43.858;25.974;2022-11-14T07:33:00;102356.97;;;11.32;67.90
42169;BME280;27838;43.858;25.974;2022-11-14T07:35:27;102362.19;;;11.32;68.23
42169;BME280;27838;43.858;25.974;2022-11-14T07:38:00;102363.94;;;11.31;68.45
42169;BME280;27838;43.858;25.974;2022-11-14T07:40:27;102361.31;;;11.31;68.27
42169;BME280;27838;43.858;25.974;2022-11-14T07:42:57;102364.09;;;11.39;68.30
42169;BME280;27838;43.858;25.974;2022-11-14T07:45:26;102357.25;;;11.44;67.88
42169;BME280;27838;43.858;25.974;2022-11-14T07:47:55;102354.72;;;11.47;67.86
42169;BME280;27838;43.858;25.974;2022-11-14T07:50:23;102352.09;;;11.47;67.81
42169;BME280;27838;43.858;25.974;2022-11-14T07:52:50;102355.75;;;11.54;67.52
42169;BME280;27838;43.858;25.974;2022-11-14T07:55:18;102361.06;;;11.59;67.47
42169;BME280;27838;43.858;25.974;2022-11-14T07:57:46;102364.59;;;11.61;67.54
42169;BME280;27838;43.858;25.974;2022-11-14T08:00:13;102364.66;;;11.64;67.13
42169;BME280;27838;43.858;25.974;2022-11-14T08:02:41;102365.50;;;11.63;67.40
42169;BME280;27838;43.858;25.974;2022-11-14T08:05:07;102357.53;;;11.57;67.57
42169;BME280;27838;43.858;25.974;2022-11-14T08:07:34;102363.75;;;11.63;67.74
42169;BME280;27838;43.858;25.974;2022-11-14T08:10:00;102374.22;;;11.63;67.56
42169;BME280;27838;43.858;25.974;2022-11-14T08:12:27;102364.66;;;11.64;67.36
42169;BME280;27838;43.858;25.974;2022-11-14T08:14:53;102365.44;;;11.60;67.22
42169;BME280;27838;43.858;25.974;2022-11-14T08:17:20;102367.09;;;11.56;67.53
42169;BME280;27838;43.858;25.974;2022-11-14T08:19:47;102367.97;;;11.57;67.42
42169;BME280;27838;43.858;25.974;2022-11-14T08:22:14;102367.09;;;11.56;67.59
42169;BME280;27838;43.858;25.974;2022-11-14T08:24:40;102371.53;;;11.59;67.80
42169;BME280;27838;43.858;25.974;2022-11-14T08:27:07;102373.34;;;11.63;67.74
42169;BME280;27838;43.858;25.974;2022-11-14T08:29:33;102383.00;;;11.67;67.35
42169;BME280;27838;43.858;25.974;2022-11-14T08:32:00;102374.41;;;11.71;67.05
42169;BME280;27838;43.858;25.974;2022-11-14T08:34:26;102379.69;;;11.76;66.78
42169;BME280;27838;43.858;25.974;2022-11-14T08:36:53;102371.97;;;11.80;66.44
42169;BME280;27838;43.858;25.974;2022-11-14T08:39:20;102365.91;;;11.81;66.95
42169;BME280;27838;43.858;25.974;2022-11-14T08:41:47;102371.19;;;11.84;66.98
42169;BME280;27838;43.858;25.974;2022-11-14T08:44:13;102368.53;;;11.83;67.56
42169;BME280;27838;43.858;25.974;2022-11-14T08:46:40;102352.59;;;11.69;66.35
42169;BME280;27838;43.858;25.974;2022-11-14T08:49:07;102361.31;;;11.69;66.72
42169;BME280;27838;43.858;25.974;2022-11-14T08:51:33;102355.22;;;11.70;66.59
42169;BME280;27838;43.858;25.974;2022-11-14T08:54:01;102348.78;;;11.55;67.15
42169;BME280;27838;43.858;25.974;2022-11-14T08:56:28;102350.81;;;11.68;67.20
42169;BME280;27838;43.858;25.974;2022-11-14T08:58:54;102351.72;;;11.70;66.98
42169;BME280;27838;43.858;25.974;2022-11-14T09:01:21;102341.47;;;11.78;66.94
42169;BME280;27838;43.858;25.974;2022-11-14T09:03:47;102343.28;;;11.82;66.78
42169;BME280;27838;43.858;25.974;2022-11-14T09:06:14;102342.47;;;11.86;66.89
42169;BME280;27838;43.858;25.974;2022-11-14T09:08:40;102340.88;;;11.91;66.98
42169;BME280;27838;43.858;25.974;2022-11-14T09:11:07;102337.44;;;11.92;66.81
42169;BME280;27838;43.858;25.974;2022-11-14T09:13:33;102334.03;;;11.98;67.13
42169;BME280;27838;43.858;25.974;2022-11-14T09:16:00;102340.00;;;11.90;67.00
42169;BME280;27838;43.858;25.974;2022-11-14T09:18:28;102329.66;;;11.95;67.10
42169;BME280;27838;43.858;25.974;2022-11-14T09:21:02;102342.53;;;11.89;66.65
42169;BME280;27838;43.858;25.974;2022-11-14T09:23:29;102327.03;;;11.95;67.00
42169;BME280;27838;43.858;25.974;2022-11-14T09:25:56;102324.56;;;12.03;66.68
42169;BME280;27838;43.858;25.974;2022-11-14T09:28:23;102335.16;;;12.11;66.67
42169;BME280;27838;43.858;25.974;2022-11-14T09:30:50;102316.81;;;12.09;66.42
42169;BME280;27838;43.858;25.974;2022-11-14T09:33:16;102313.28;;;12.04;66.69
42169;BME280;27838;43.858;25.974;2022-11-14T09:35:43;102314.28;;;12.12;66.66
42169;BME280;27838;43.858;25.974;2022-11-14T09:38:10;102301.22;;;12.12;66.78
42169;BME280;27838;43.858;25.974;2022-11-14T09:46:03;102292.75;;;12.25;66.71
42169;BME280;27838;43.858;25.974;2022-11-14T09:48:36;102290.28;;;12.35;66.43
42169;BME280;27838;43.858;25.974;2022-11-14T09:51:14;102286.09;;;12.43;66.64
42169;BME280;27838;43.858;25.974;2022-11-14T09:56:46;102281.78;;;12.46;66.24
42169;BME280;27838;43.858;25.974;2022-11-14T09:59:13;102283.59;;;12.51;66.47
42169;BME280;27838;43.858;25.974;2022-11-14T10:01:51;102278.47;;;12.57;66.39
42169;BME280;27838;43.858;25.974;2022-11-14T10:04:39;102277.56;;;12.56;65.75
42169;BME280;27838;43.858;25.974;2022-11-14T10:12:59;102267.28;;;12.65;65.85
42169;BME280;27838;43.858;25.974;2022-11-14T10:20:53;102260.28;;;12.64;65.69
42169;BME280;27838;43.858;25.974;2022-11-14T10:26:08;102255.94;;;12.66;66.01
42169;BME280;27838;43.858;25.974;2022-11-14T10:42:21;102244.09;;;12.90;65.81
42169;BME280;27838;43.858;25.974;2022-11-14T10:44:57;102236.22;;;12.89;66.10
42169;BME280;27838;43.858;25.974;2022-11-14T10:47:34;102235.38;;;12.91;66.05
42169;BME280;27838;43.858;25.974;2022-11-14T10:50:14;102238.00;;;12.91;66.08
42169;BME280;27838;43.858;25.974;2022-11-14T10:52:43;102231.06;;;12.93;65.69
42169;BME280;27838;43.858;25.974;2022-11-14T10:55:15;102227.66;;;12.99;65.58
42169;BME280;27838;43.858;25.974;2022-11-14T10:57:46;102229.41;;;13.01;65.74
42169;BME280;27838;43.858;25.974;2022-11-14T11:00:18;102218.19;;;13.07;65.60
42169;BME280;27838;43.858;25.974;2022-11-14T11:02:48;102223.44;;;13.10;65.28
42169;BME280;27838;43.858;25.974;2022-11-14T11:05:17;102222.63;;;13.14;65.63
42169;BME280;27838;43.858;25.974;2022-11-14T11:07:46;102203.34;;;13.08;65.22
42169;BME280;27838;43.858;25.974;2022-11-14T11:10:31;102220.06;;;13.19;65.25
42169;BME280;27838;43.858;25.974;2022-11-14T11:13:29;102215.72;;;13.19;65.65
42169;BME280;27838;43.858;25.974;2022-11-14T11:15:58;102199.94;;;13.15;65.50
42169;BME280;27838;43.858;25.974;2022-11-14T11:18:31;102216.63;;;13.21;65.10
42169;BME280;27838;43.858;25.974;2022-11-14T11:21:11;102219.28;;;13.25;65.36
42169;BME280;27838;43.858;25.974;2022-11-14T11:26:31;102213.22;;;13.29;65.02
42169;BME280;27838;43.858;25.974;2022-11-14T11:29:15;102205.38;;;13.30;64.59
42169;BME280;27838;43.858;25.974;2022-11-14T11:34:21;102196.72;;;13.34;64.51
42169;BME280;27838;43.858;25.974;2022-11-14T11:36:52;102202.81;;;13.35;64.66
42169;BME280;27838;43.858;25.974;2022-11-14T11:39:29;102199.41;;;13.39;64.91
42169;BME280;27838;43.858;25.974;2022-11-14T11:42:00;102201.16;;;13.38;64.82
42169;BME280;27838;43.858;25.974;2022-11-14T11:44:34;102200.31;;;13.41;64.63
42169;BME280;27838;43.858;25.974;2022-11-14T11:47:04;102200.31;;;13.43;64.54
42169;BME280;27838;43.858;25.974;2022-11-14T11:49:48;102197.69;;;13.43;64.64
42169;BME280;27838;43.858;25.974;2022-11-14T11:52:22;102186.34;;;13.44;64.51
42169;BME280;27838;43.858;25.974;2022-11-14T11:55:12;102194.31;;;13.51;64.64
42169;BME280;27838;43.858;25.974;2022-11-14T11:57:52;102190.84;;;13.55;64.09
42169;BME280;27838;43.858;25.974;2022-11-14T12:00:22;102183.84;;;13.53;63.78
42169;BME280;27838;43.858;25.974;2022-11-14T12:02:50;102183.81;;;13.50;63.82
42169;BME280;27838;43.858;25.974;2022-11-14T12:05:25;102182.91;;;13.46;64.05
42169;BME280;27838;43.858;25.974;2022-11-14T12:08:00;102179.41;;;13.49;63.63
42169;BME280;27838;43.858;25.974;2022-11-14T12:10:31;102177.69;;;13.49;63.54
42169;BME280;27838;43.858;25.974;2022-11-14T12:27:14;102181.16;;;13.48;63.87
42169;BME280;27838;43.858;25.974;2022-11-14T12:30:15;102172.44;;;13.48;63.85
42169;BME280;27838;43.858;25.974;2022-11-14T12:33:42;102183.78;;;13.48;64.01
42169;BME280;27838;43.858;25.974;2022-11-14T12:35:52;102188.16;;;13.48;63.79
42169;BME280;27838;43.858;25.974;2022-11-14T12:38:21;102176.81;;;13.47;63.84
42169;BME280;27838;43.858;25.974;2022-11-14T12:40:51;102166.31;;;13.49;63.65
42169;BME280;27838;43.858;25.974;2022-11-14T12:43:40;102175.94;;;13.50;63.95
42169;BME280;27838;43.858;25.974;2022-11-14T12:46:08;102157.56;;;13.45;63.33
42169;BME280;27838;43.858;25.974;2022-11-14T12:48:43;102171.59;;;13.50;63.92
42169;BME280;27838;43.858;25.974;2022-11-14T12:53:53;102174.25;;;13.55;63.54
42169;BME280;27838;43.858;25.974;2022-11-14T12:59:24;102175.94;;;13.50;63.58
42169;BME280;27838;43.858;25.974;2022-11-14T13:04:52;102170.75;;;13.53;63.48
42169;BME280;27838;43.858;25.974;2022-11-14T13:13:10;102167.25;;;13.54;63.07
42169;BME280;27838;43.858;25.974;2022-11-14T13:15:58;102165.50;;;13.53;62.40
42169;BME280;27838;43.858;25.974;2022-11-14T13:27:30;102163.75;;;13.52;61.44
42169;BME280;27838;43.858;25.974;2022-11-14T13:29:57;102159.41;;;13.55;60.88
42169;BME280;27838;43.858;25.974;2022-11-14T13:35:18;102156.78;;;13.54;60.05
42169;BME280;27838;43.858;25.974;2022-11-14T13:40:45;102156.72;;;13.48;60.43
42169;BME280;27838;43.858;25.974;2022-11-14T13:43:41;102156.69;;;13.45;61.01
42169;BME280;27838;43.858;25.974;2022-11-14T13:51:40;102147.06;;;13.42;60.65
42169;BME280;27838;43.858;25.974;2022-11-14T13:54:15;102153.13;;;13.39;61.06
42169;BME280;27838;43.858;25.974;2022-11-14T14:10:08;102146.19;;;13.43;60.92
42169;BME280;27838;43.858;25.974;2022-11-14T14:15:57;102140.91;;;13.38;60.99
42169;BME280;27838;43.858;25.974;2022-11-14T14:21:20;102136.56;;;13.39;60.91
42169;BME280;27838;43.858;25.974;2022-11-14T14:24:27;102137.38;;;13.36;61.23
42169;BME280;27838;43.858;25.974;2022-11-14T14:27:06;102133.91;;;13.37;61.42
42169;BME280;27838;43.858;25.974;2022-11-14T14:29:41;102135.69;;;13.41;61.28
42169;BME280;27838;43.858;25.974;2022-11-14T14:32:18;102131.34;;;13.44;61.10
42169;BME280;27838;43.858;25.974;2022-11-14T14:34:45;102129.56;;;13.39;61.33
42169;BME280;27838;43.858;25.974;2022-11-14T14:39:58;102139.19;;;13.44;61.11
42169;BME280;27838;43.858;25.974;2022-11-14T14:42:45;102127.81;;;13.40;61.23
42169;BME280;27838;43.858;25.974;2022-11-14T14:45:16;102129.59;;;13.43;61.41
42169;BME280;27838;43.858;25.974;2022-11-14T14:47:45;102130.50;;;13.45;60.71
42169;BME280;27838;43.858;25.974;2022-11-14T14:50:19;102130.50;;;13.45;60.71
42169;BME280;27838;43.858;25.974;2022-11-14T14:52:54;102121.72;;;13.39;60.84